Time;durP1;ratioP1;P1;durP2;ratioP2;P2;SDS_P1;SDS_P2;PMS_P1;PMS_P2;Temp;Humidity;BMP_temperature;BMP_pressure;BME280_temperature;BME280_humidity;BME280_pressure;Samples;Min_cycle;Max_cycle;Signal;HPM_P1;HPM_P2
2023/06/20 00:02:03;;;;;;;;;;;20.30;99.90;;;;;;5039091;28;19991;-65
2023/06/20 00:04:29;;;;;;;;;;;20.30;99.90;;;;;;5036635;28;19913;-66
2023/06/20 00:06:55;;;;;;;;;;;20.30;99.90;;;;;;5034473;28;19913;-66
2023/06/20 00:09:20;;;;;;;;;;;20.30;99.90;;;;;;5033548;28;19909;-65
2023/06/20 00:11:46;;;;;;;;;;;20.30;99.90;;;;;;5033408;28;20027;-77
2023/06/20 00:14:12;;;;;;;;;;;20.20;99.90;;;;;;5032437;28;19920;-66
2023/06/20 00:16:38;;;;;;;;;;;20.10;99.90;;;;;;5031438;28;19913;-66
2023/06/20 00:19:03;;;;;;;;;;;20.10;99.90;;;;;;5033861;28;19913;-66
2023/06/20 00:21:29;;;;;;;;;;;20.00;99.90;;;;;;5034370;28;19913;-66
2023/06/20 00:23:55;;;;;;;;;;;20.00;99.90;;;;;;5034528;28;19913;-67
2023/06/20 00:26:21;;;;;;;;;;;20.00;99.90;;;;;;5033643;28;20323;-66
2023/06/20 00:28:47;;;;;;;;;;;20.00;99.90;;;;;;5033538;28;19952;-65
2023/06/20 00:31:12;;;;;;;;;;;20.00;99.90;;;;;;5036411;28;20003;-66
2023/06/20 00:33:38;;;;;;;;;;;20.00;99.90;;;;;;5038263;28;19944;-66
2023/06/20 00:36:03;;;;;;;;;;;19.90;99.90;;;;;;5016444;28;19921;-66
2023/06/20 00:38:29;;;;;;;;;;;20.00;99.90;;;;;;5031504;28;19909;-66
2023/06/20 00:40:55;;;;;;;;;;;20.00;99.90;;;;;;5036087;28;19944;-67
2023/06/20 00:43:20;;;;;;;;;;;19.90;99.90;;;;;;5038053;28;19920;-67
2023/06/20 00:45:46;;;;;;;;;;;19.90;99.90;;;;;;5037397;28;20076;-66
2023/06/20 00:48:12;;;;;;;;;;;19.90;99.90;;;;;;5041504;28;19956;-65
2023/06/20 00:50:38;;;;;;;;;;;19.90;99.90;;;;;;5037439;28;19909;-66
2023/06/20 00:53:05;;;;;;;;;;;19.90;99.90;;;;;;5037299;28;20369;-66
2023/06/20 00:55:31;;;;;;;;;;;19.90;99.90;;;;;;5039404;28;19983;-65
2023/06/20 00:57:58;;;;;;;;;;;19.90;99.90;;;;;;5037767;28;19909;-66
2023/06/20 01:00:24;;;;;;;;;;;19.90;99.90;;;;;;5036629;28;20316;-81
2023/06/20 01:02:52;;;;;;;;;;;19.90;99.90;;;;;;5036251;28;19913;-65
2023/06/20 01:05:18;;;;;;;;;;;19.90;99.90;;;;;;5037270;28;20296;-66
2023/06/20 01:07:57;;;;;;;;;;;19.90;99.90;;;;;;5020035;28;19984;-66
2023/06/20 01:10:31;;;;;;;;;;;19.90;99.90;;;;;;5038025;28;19912;-66
2023/06/20 01:13:02;;;;;;;;;;;19.90;99.90;;;;;;5037717;28;19992;-65
2023/06/20 01:15:40;;;;;;;;;;;19.90;99.90;;;;;;5037383;28;19909;-66
2023/06/20 01:18:11;;;;;;;;;;;19.90;99.90;;;;;;5037788;28;20315;-66
2023/06/20 01:20:43;;;;;;;;;;;19.90;99.90;;;;;;5037940;28;19905;-79
2023/06/20 01:23:25;;;;;;;;;;;19.90;99.90;;;;;;5049905;28;19908;-66
2023/06/20 01:26:09;;;;;;;;;;;19.90;99.90;;;;;;5036092;28;19909;-66
2023/06/20 01:28:38;;;;;;;;;;;19.90;99.90;;;;;;5037511;28;19909;-66
2023/06/20 01:31:11;;;;;;;;;;;19.90;99.90;;;;;;5035327;28;20319;-66
2023/06/20 01:33:51;;;;;;;;;;;19.90;99.90;;;;;;5037552;28;19904;-66
2023/06/20 01:36:18;;;;;;;;;;;19.90;99.90;;;;;;5036600;28;19909;-66
2023/06/20 01:38:44;;;;;;;;;;;19.90;99.90;;;;;;5036735;28;19959;-66
2023/06/20 01:41:12;;;;;;;;;;;19.90;99.90;;;;;;5031998;28;19952;-66
2023/06/20 01:43:37;;;;;;;;;;;19.90;99.90;;;;;;5037325;28;19905;-66
2023/06/20 01:46:04;;;;;;;;;;;19.90;99.90;;;;;;5036587;28;20074;-66
2023/06/20 01:48:32;;;;;;;;;;;19.90;99.90;;;;;;5037215;28;19916;-66
2023/06/20 01:50:58;;;;;;;;;;;19.90;99.90;;;;;;5037175;28;19995;-66
2023/06/20 01:53:24;;;;;;;;;;;19.80;99.90;;;;;;5024828;28;20002;-65
2023/06/20 01:55:51;;;;;;;;;;;19.80;99.90;;;;;;5036217;28;19923;-80
2023/06/20 01:58:17;;;;;;;;;;;19.90;99.90;;;;;;5035929;28;20055;-65
2023/06/20 02:00:43;;;;;;;;;;;19.90;99.90;;;;;;5036157;28;19916;-65
2023/06/20 02:03:09;;;;;;;;;;;19.80;99.90;;;;;;5018006;28;19924;-66
2023/06/20 02:05:35;;;;;;;;;;;19.80;99.90;;;;;;5035956;28;19913;-67
2023/06/20 02:08:01;;;;;;;;;;;19.80;99.90;;;;;;5036501;28;20331;-66
2023/06/20 02:10:27;;;;;;;;;;;19.80;99.90;;;;;;5036519;28;19994;-66
2023/06/20 02:12:54;;;;;;;;;;;19.80;99.90;;;;;;5035794;28;19909;-79
2023/06/20 02:15:20;;;;;;;;;;;19.80;99.90;;;;;;5035954;28;19909;-66
2023/06/20 02:17:46;;;;;;;;;;;19.90;99.90;;;;;;5035956;28;19913;-66
2023/06/20 02:20:12;;;;;;;;;;;19.80;99.90;;;;;;5036069;28;19931;-65
2023/06/20 02:22:40;;;;;;;;;;;19.80;99.90;;;;;;5035988;28;19952;-67
2023/06/20 02:25:07;;;;;;;;;;;19.80;99.90;;;;;;5035408;28;19970;-65
2023/06/20 02:27:33;;;;;;;;;;;19.90;99.90;;;;;;5035495;28;20258;-65
2023/06/20 02:30:00;;;;;;;;;;;19.80;99.90;;;;;;5035703;28;19913;-66
2023/06/20 02:32:26;;;;;;;;;;;19.80;99.90;;;;;;5034623;28;20829;-79
2023/06/20 02:34:54;;;;;;;;;;;19.80;99.90;;;;;;5035933;28;19908;-66
2023/06/20 02:37:21;;;;;;;;;;;19.80;99.90;;;;;;5035020;28;19997;-66
2023/06/20 02:39:48;;;;;;;;;;;19.80;99.90;;;;;;5035670;28;19909;-66
2023/06/20 02:42:13;;;;;;;;;;;19.80;99.90;;;;;;5034766;28;19912;-66
2023/06/20 02:44:39;;;;;;;;;;;19.80;99.90;;;;;;5034529;28;19975;-65
2023/06/20 02:47:08;;;;;;;;;;;19.80;99.90;;;;;;5035527;28;19917;-67
2023/06/20 02:49:55;;;;;;;;;;;19.80;99.90;;;;;;5026482;28;19905;-79
2023/06/20 02:52:32;;;;;;;;;;;19.80;99.90;;;;;;5028651;28;19913;-79
2023/06/20 02:55:21;;;;;;;;;;;19.80;99.90;;;;;;5023049;28;19920;-66
2023/06/20 02:57:50;;;;;;;;;;;19.80;99.90;;;;;;5024454;28;19941;-66
2023/06/20 03:00:16;;;;;;;;;;;19.80;99.90;;;;;;5032282;28;20020;-66
2023/06/20 03:02:55;;;;;;;;;;;19.70;99.90;;;;;;5027828;28;19909;-66
2023/06/20 03:05:22;;;;;;;;;;;19.80;99.90;;;;;;5035200;28;20007;-65
2023/06/20 03:07:48;;;;;;;;;;;19.80;99.90;;;;;;5035164;28;19996;-65
2023/06/20 03:10:14;;;;;;;;;;;19.80;99.90;;;;;;5035251;28;19935;-66
2023/06/20 03:12:39;;;;;;;;;;;19.80;99.90;;;;;;5035469;28;19905;-79
2023/06/20 03:15:05;;;;;;;;;;;19.70;99.90;;;;;;5021373;28;19964;-65
2023/06/20 03:17:35;;;;;;;;;;;19.70;99.90;;;;;;5035364;28;19905;-66
2023/06/20 03:20:03;;;;;;;;;;;19.70;99.90;;;;;;5035781;28;19916;-66
2023/06/20 03:22:30;;;;;;;;;;;19.70;99.90;;;;;;5034995;28;19967;-65
2023/06/20 03:24:55;;;;;;;;;;;19.70;99.90;;;;;;5023625;28;20248;-66
2023/06/20 03:27:21;;;;;;;;;;;19.70;99.90;;;;;;5029185;28;19999;-66
2023/06/20 03:29:46;;;;;;;;;;;19.70;99.90;;;;;;5034541;28;19917;-66
2023/06/20 03:32:12;;;;;;;;;;;19.70;99.90;;;;;;5034841;28;20200;-65
2023/06/20 03:34:38;;;;;;;;;;;19.70;99.90;;;;;;5035186;28;20347;-65
2023/06/20 03:37:03;;;;;;;;;;;19.70;99.90;;;;;;5033421;28;20190;-65
2023/06/20 03:39:29;;;;;;;;;;;19.70;99.90;;;;;;5034622;28;19905;-66
2023/06/20 03:41:54;;;;;;;;;;;19.70;99.90;;;;;;5035009;28;19913;-65
2023/06/20 03:44:20;;;;;;;;;;;19.60;99.90;;;;;;5034052;28;19919;-65
2023/06/20 03:46:46;;;;;;;;;;;19.60;99.90;;;;;;5034303;28;19915;-66
2023/06/20 03:49:11;;;;;;;;;;;19.60;99.90;;;;;;5034595;28;19944;-65
2023/06/20 03:51:38;;;;;;;;;;;19.60;99.90;;;;;;5007795;28;19909;-66
2023/06/20 03:54:03;;;;;;;;;;;19.60;99.90;;;;;;5035112;28;19904;-65
2023/06/20 03:56:29;;;;;;;;;;;19.60;99.90;;;;;;5034311;28;19982;-66
2023/06/20 03:58:54;;;;;;;;;;;19.60;99.90;;;;;;5034998;28;19920;-65
2023/06/20 04:01:24;;;;;;;;;;;19.60;99.90;;;;;;5034526;28;19940;-66
2023/06/20 04:03:50;;;;;;;;;;;19.60;99.90;;;;;;5015329;28;20296;-79
2023/06/20 04:06:15;;;;;;;;;;;19.70;99.90;;;;;;5036801;28;19913;-66
2023/06/20 04:08:42;;;;;;;;;;;19.70;99.90;;;;;;5038927;28;19954;-66
2023/06/20 04:11:07;;;;;;;;;;;19.70;99.90;;;;;;5038635;28;19909;-65
2023/06/20 04:13:33;;;;;;;;;;;19.70;99.90;;;;;;5038040;28;20258;-80
2023/06/20 04:15:59;;;;;;;;;;;19.70;99.90;;;;;;5034598;28;19913;-66
2023/06/20 04:18:24;;;;;;;;;;;19.70;99.90;;;;;;5039061;28;19916;-65
2023/06/20 04:20:50;;;;;;;;;;;19.70;99.90;;;;;;5036757;28;20288;-66
2023/06/20 04:23:15;;;;;;;;;;;19.70;99.90;;;;;;5038564;28;19905;-65
2023/06/20 04:25:41;;;;;;;;;;;19.80;99.90;;;;;;5038030;28;19905;-65
2023/06/20 04:28:06;;;;;;;;;;;19.80;99.90;;;;;;5034542;28;19909;-65
2023/06/20 04:30:32;;;;;;;;;;;19.80;99.90;;;;;;5038602;28;20291;-83
2023/06/20 04:32:57;;;;;;;;;;;19.80;99.90;;;;;;5038056;28;19909;-66
2023/06/20 04:35:23;;;;;;;;;;;19.80;99.90;;;;;;5038569;28;19916;-65
2023/06/20 04:37:51;;;;;;;;;;;19.80;99.90;;;;;;5037561;28;19995;-65
2023/06/20 04:40:19;;;;;;;;;;;19.80;99.90;;;;;;5038075;28;19909;-66
2023/06/20 04:42:45;;;;;;;;;;;19.80;99.90;;;;;;5037751;28;20298;-65
2023/06/20 04:45:11;;;;;;;;;;;19.80;99.90;;;;;;5037756;28;19940;-65
2023/06/20 04:47:37;;;;;;;;;;;19.80;99.90;;;;;;5035053;28;19909;-66
2023/06/20 04:50:03;;;;;;;;;;;19.80;99.90;;;;;;5038346;28;19913;-66
2023/06/20 04:52:31;;;;;;;;;;;19.80;99.90;;;;;;5034869;28;20235;-65
2023/06/20 04:55:02;;;;;;;;;;;19.80;99.90;;;;;;5033049;28;19909;-65
2023/06/20 04:57:31;;;;;;;;;;;19.80;99.90;;;;;;5038621;28;19905;-66
2023/06/20 04:59:57;;;;;;;;;;;19.70;99.90;;;;;;5037577;28;19920;-65
2023/06/20 05:02:23;;;;;;;;;;;19.70;99.90;;;;;;5038006;28;19955;-65
2023/06/20 05:04:49;;;;;;;;;;;19.70;99.90;;;;;;5032784;28;20215;-66
2023/06/20 05:07:14;;;;;;;;;;;19.70;99.90;;;;;;5037570;28;19916;-65
2023/06/20 05:09:40;;;;;;;;;;;19.70;99.90;;;;;;5038044;28;19909;-66
2023/06/20 05:12:05;;;;;;;;;;;19.80;99.90;;;;;;5037407;28;19916;-79
2023/06/20 05:14:31;;;;;;;;;;;19.80;99.90;;;;;;5036228;28;19909;-65
2023/06/20 05:16:57;;;;;;;;;;;19.80;99.90;;;;;;5037207;28;19908;-65
2023/06/20 05:19:22;;;;;;;;;;;19.90;99.90;;;;;;5020073;28;19905;-65
2023/06/20 05:21:48;;;;;;;;;;;19.90;99.90;;;;;;5037849;28;19906;-66
2023/06/20 05:24:14;;;;;;;;;;;19.90;99.90;;;;;;5037154;28;19916;-66
2023/06/20 05:26:39;;;;;;;;;;;20.00;99.90;;;;;;5035716;28;19920;-65
2023/06/20 05:29:05;;;;;;;;;;;20.00;99.90;;;;;;5039333;28;19920;-66
2023/06/20 05:31:31;;;;;;;;;;;20.00;99.90;;;;;;5038359;28;20307;-80
2023/06/20 05:33:56;;;;;;;;;;;20.10;99.90;;;;;;5045029;28;19905;-66
2023/06/20 05:36:22;;;;;;;;;;;20.10;99.90;;;;;;5043374;28;20200;-66
2023/06/20 05:38:48;;;;;;;;;;;20.10;99.90;;;;;;5039969;28;20002;-80
2023/06/20 05:41:17;;;;;;;;;;;20.10;99.90;;;;;;5040373;28;20000;-78
2023/06/20 05:43:42;;;;;;;;;;;20.20;99.90;;;;;;5042037;28;19909;-65
2023/06/20 05:46:08;;;;;;;;;;;20.30;99.90;;;;;;5037319;28;20004;-65
2023/06/20 05:48:34;;;;;;;;;;;20.30;99.90;;;;;;5036286;28;19952;-65
2023/06/20 05:51:00;;;;;;;;;;;20.40;99.90;;;;;;5042710;28;19971;-65
2023/06/20 05:53:27;;;;;;;;;;;20.40;99.90;;;;;;5042721;28;19913;-65
2023/06/20 05:55:52;;;;;;;;;;;20.50;99.90;;;;;;5037587;28;19909;-80
2023/06/20 05:58:18;;;;;;;;;;;20.50;99.90;;;;;;5039427;28;19916;-65
2023/06/20 06:00:45;;;;;;;;;;;20.60;99.90;;;;;;5040429;28;20413;-66
2023/06/20 06:03:14;;;;;;;;;;;20.60;99.90;;;;;;5038303;28;19932;-65
2023/06/20 06:05:41;;;;;;;;;;;20.70;99.90;;;;;;5044393;28;20039;-67
2023/06/20 06:08:06;;;;;;;;;;;20.70;99.90;;;;;;5038939;28;19905;-65
2023/06/20 06:10:32;;;;;;;;;;;20.80;99.90;;;;;;5040754;28;19909;-65
2023/06/20 06:12:58;;;;;;;;;;;20.90;99.90;;;;;;5036828;28;19912;-78
2023/06/20 06:15:24;;;;;;;;;;;21.00;99.90;;;;;;5036466;28;20102;-65
2023/06/20 06:17:49;;;;;;;;;;;21.00;99.90;;;;;;5018789;28;19936;-77
2023/06/20 06:20:18;;;;;;;;;;;21.10;99.90;;;;;;5036826;28;20207;-65
2023/06/20 06:22:43;;;;;;;;;;;21.20;99.90;;;;;;5036466;28;19905;-66
2023/06/20 06:25:09;;;;;;;;;;;21.20;99.90;;;;;;5036386;28;20208;-65
2023/06/20 06:27:35;;;;;;;;;;;21.30;99.90;;;;;;5035723;28;19909;-66
2023/06/20 06:30:01;;;;;;;;;;;21.40;99.90;;;;;;5036207;28;19909;-65
2023/06/20 06:32:27;;;;;;;;;;;21.40;99.90;;;;;;5047731;28;20268;-65
2023/06/20 06:34:53;;;;;;;;;;;21.50;99.90;;;;;;5036259;28;19905;-65
2023/06/20 06:37:20;;;;;;;;;;;21.60;99.90;;;;;;5035232;28;19912;-66
2023/06/20 06:39:46;;;;;;;;;;;21.60;99.90;;;;;;5036169;28;19912;-66
2023/06/20 06:42:11;;;;;;;;;;;21.70;99.90;;;;;;5036046;28;20306;-65
2023/06/20 06:44:37;;;;;;;;;;;21.80;99.90;;;;;;5035856;28;19963;-65
2023/06/20 06:47:03;;;;;;;;;;;21.80;99.90;;;;;;5036151;28;20192;-65
2023/06/20 06:49:31;;;;;;;;;;;21.90;99.90;;;;;;5035563;28;19971;-65
2023/06/20 06:51:56;;;;;;;;;;;21.90;99.90;;;;;;5018452;28;19959;-65
2023/06/20 06:54:22;;;;;;;;;;;21.90;99.90;;;;;;5035655;28;19992;-65
2023/06/20 06:56:48;;;;;;;;;;;21.90;99.90;;;;;;5035256;28;19917;-81
2023/06/20 06:59:13;;;;;;;;;;;22.00;99.90;;;;;;5035529;28;19932;-65
2023/06/20 07:01:39;;;;;;;;;;;22.10;99.90;;;;;;5017901;28;19909;-65
2023/06/20 07:04:05;;;;;;;;;;;22.10;99.90;;;;;;5038245;28;19913;-66
2023/06/20 07:06:31;;;;;;;;;;;22.10;99.90;;;;;;5035111;28;19908;-80
2023/06/20 07:08:56;;;;;;;;;;;22.20;99.90;;;;;;5035271;28;19909;-66
2023/06/20 07:11:24;;;;;;;;;;;22.20;99.90;;;;;;5035622;28;19912;-78
2023/06/20 07:13:50;;;;;;;;;;;22.20;99.90;;;;;;5035465;28;20598;-65
2023/06/20 07:16:15;;;;;;;;;;;22.20;99.90;;;;;;5025418;28;19913;-68
2023/06/20 07:18:41;;;;;;;;;;;22.20;99.90;;;;;;5034796;28;19909;-65
2023/06/20 07:21:06;;;;;;;;;;;22.20;99.90;;;;;;5035291;28;19909;-65
2023/06/20 07:23:35;;;;;;;;;;;22.30;99.90;;;;;;5035735;28;20359;-69
2023/06/20 07:26:00;;;;;;;;;;;22.40;99.90;;;;;;5035278;28;19909;-66
2023/06/20 07:28:28;;;;;;;;;;;22.50;99.90;;;;;;5035020;28;19955;-65
2023/06/20 07:30:53;;;;;;;;;;;22.50;99.90;;;;;;5035388;28;20251;-65
2023/06/20 07:33:19;;;;;;;;;;;22.60;99.90;;;;;;5034959;28;19908;-67
2023/06/20 07:35:44;;;;;;;;;;;22.70;99.90;;;;;;5034258;28;20311;-66
2023/06/20 07:38:10;;;;;;;;;;;22.80;99.90;;;;;;5032876;28;19921;-67
2023/06/20 07:40:36;;;;;;;;;;;22.80;99.90;;;;;;5034508;28;19958;-66
2023/06/20 07:43:01;;;;;;;;;;;22.80;99.90;;;;;;5034867;28;19905;-66
2023/06/20 07:45:27;;;;;;;;;;;22.80;99.90;;;;;;5028482;28;19977;-82
2023/06/20 07:47:53;;;;;;;;;;;22.80;99.90;;;;;;5037087;28;19928;-66
2023/06/20 07:50:18;;;;;;;;;;;22.80;99.90;;;;;;5030315;28;20238;-83
2023/06/20 07:52:44;;;;;;;;;;;22.80;99.90;;;;;;5034594;28;19920;-65
2023/06/20 07:55:10;;;;;;;;;;;22.80;99.90;;;;;;5034924;28;20208;-67
2023/06/20 07:57:35;;;;;;;;;;;22.90;99.90;;;;;;5035099;28;19916;-74
2023/06/20 08:00:01;;;;;;;;;;;23.10;99.90;;;;;;5034636;28;19916;-67
2023/06/20 08:02:28;;;;;;;;;;;23.40;99.90;;;;;;5035104;28;19911;-81
2023/06/20 08:04:54;;;;;;;;;;;23.60;99.90;;;;;;5034972;28;19982;-76
2023/06/20 08:07:19;;;;;;;;;;;23.70;99.90;;;;;;5035126;28;19909;-66
2023/06/20 08:09:45;;;;;;;;;;;23.90;99.90;;;;;;5033744;28;19963;-66
2023/06/20 08:12:11;;;;;;;;;;;24.00;99.90;;;;;;5015811;28;19913;-67
2023/06/20 08:14:37;;;;;;;;;;;24.10;99.90;;;;;;5031489;28;19992;-68
2023/06/20 08:17:03;;;;;;;;;;;24.20;99.90;;;;;;5033098;28;19960;-77
2023/06/20 08:19:28;;;;;;;;;;;24.30;99.90;;;;;;5039271;28;19912;-66
2023/06/20 08:21:54;;;;;;;;;;;24.40;99.90;;;;;;5037430;28;19909;-81
2023/06/20 08:24:20;;;;;;;;;;;24.60;99.90;;;;;;5041078;28;19912;-66
2023/06/20 08:26:45;;;;;;;;;;;24.70;99.90;;;;;;5036904;28;20212;-67
2023/06/20 08:29:11;;;;;;;;;;;24.80;99.90;;;;;;5041104;28;20254;-66
2023/06/20 08:31:37;;;;;;;;;;;25.00;99.90;;;;;;5016221;28;19905;-65
2023/06/20 08:34:03;;;;;;;;;;;25.20;99.90;;;;;;5034241;28;19932;-65
2023/06/20 08:36:29;;;;;;;;;;;25.20;99.90;;;;;;5013771;28;20004;-82
2023/06/20 08:38:54;;;;;;;;;;;25.20;99.90;;;;;;5029864;28;19999;-76
2023/06/20 08:41:26;;;;;;;;;;;25.20;99.90;;;;;;5034427;28;19909;-66
2023/06/20 08:43:52;;;;;;;;;;;25.30;99.90;;;;;;5034310;28;19916;-67
2023/06/20 08:46:18;;;;;;;;;;;25.40;99.90;;;;;;5034296;28;19912;-66
2023/06/20 08:48:46;;;;;;;;;;;25.50;99.90;;;;;;5039584;28;20169;-66
2023/06/20 08:51:14;;;;;;;;;;;25.50;99.90;;;;;;5015321;28;19955;-80
2023/06/20 08:53:40;;;;;;;;;;;25.80;99.90;;;;;;5041606;28;20434;-66
2023/06/20 08:56:06;;;;;;;;;;;26.00;99.90;;;;;;5041945;28;20319;-67
2023/06/20 08:58:32;;;;;;;;;;;26.10;99.90;;;;;;5041574;28;19920;-67
2023/06/20 09:00:58;;;;;;;;;;;26.00;99.90;;;;;;5040518;28;19905;-66
2023/06/20 09:03:24;;;;;;;;;;;26.20;99.90;;;;;;5040768;28;20189;-67
2023/06/20 09:05:49;;;;;;;;;;;26.10;99.90;;;;;;5040689;28;19915;-66
2023/06/20 09:08:15;;;;;;;;;;;26.20;99.90;;;;;;5039694;28;19912;-68
2023/06/20 09:10:41;;;;;;;;;;;26.40;99.90;;;;;;5044693;28;19987;-66
2023/06/20 09:13:08;;;;;;;;;;;26.40;99.90;;;;;;5019433;28;19931;-66
2023/06/20 09:15:34;;;;;;;;;;;26.40;99.90;;;;;;5039120;28;19913;-67
2023/06/20 09:18:01;;;;;;;;;;;26.40;99.90;;;;;;5037839;28;20318;-66
2023/06/20 09:20:27;;;;;;;;;;;26.20;99.90;;;;;;5019874;28;20223;-80
2023/06/20 09:22:53;;;;;;;;;;;26.30;99.90;;;;;;5037710;28;19912;-81
2023/06/20 09:25:22;;;;;;;;;;;26.40;99.90;;;;;;5036510;28;19909;-81
2023/06/20 09:27:48;;;;;;;;;;;26.40;99.90;;;;;;5034491;28;19905;-67
2023/06/20 09:30:14;;;;;;;;;;;26.60;99.90;;;;;;5036917;28;20125;-68
2023/06/20 09:32:40;;;;;;;;;;;26.70;99.90;;;;;;5036280;28;19913;-66
2023/06/20 09:35:07;;;;;;;;;;;26.90;99.90;;;;;;5037226;28;19905;-67
2023/06/20 09:37:39;;;;;;;;;;;26.90;99.90;;;;;;5037183;28;19905;-67
2023/06/20 09:40:12;;;;;;;;;;;27.20;99.90;;;;;;5031396;28;19924;-67
2023/06/20 09:42:39;;;;;;;;;;;27.40;99.90;;;;;;5034302;28;19913;-66
2023/06/20 09:45:06;;;;;;;;;;;27.70;99.90;;;;;;5037452;28;20349;-67
2023/06/20 09:47:33;;;;;;;;;;;27.80;99.90;;;;;;5037305;28;20185;-66
2023/06/20 09:49:59;;;;;;;;;;;27.90;99.90;;;;;;5037647;28;19916;-81
2023/06/20 09:52:29;;;;;;;;;;;28.10;99.90;;;;;;5035736;28;19917;-67
2023/06/20 09:55:00;;;;;;;;;;;28.30;99.90;;;;;;5036856;28;20016;-67
2023/06/20 09:57:30;;;;;;;;;;;28.40;99.90;;;;;;5037307;28;19916;-68
2023/06/20 09:59:57;;;;;;;;;;;28.50;99.90;;;;;;5036468;28;19921;-67
2023/06/20 10:02:24;;;;;;;;;;;28.60;99.90;;;;;;5031193;28;19909;-67
2023/06/20 10:04:50;;;;;;;;;;;28.80;99.90;;;;;;5018668;28;19970;-67
2023/06/20 10:07:16;;;;;;;;;;;28.90;99.90;;;;;;5040376;28;19991;-68
2023/06/20 10:09:43;;;;;;;;;;;29.00;99.90;;;;;;5038801;28;19955;-67
2023/06/20 10:12:10;;;;;;;;;;;29.20;99.90;;;;;;5042531;28;19953;-67
2023/06/20 10:14:35;;;;;;;;;;;29.20;99.90;;;;;;5038687;28;19909;-68
2023/06/20 10:17:07;;;;;;;;;;;29.20;99.90;;;;;;5038570;28;20223;-67
2023/06/20 10:19:45;;;;;;;;;;;29.30;99.90;;;;;;5036350;28;19911;-79
2023/06/20 10:22:11;;;;;;;;;;;29.30;99.90;;;;;;5017421;28;19920;-79
2023/06/20 10:24:39;;;;;;;;;;;29.40;99.90;;;;;;5036632;28;19905;-67
2023/06/20 10:27:05;;;;;;;;;;;29.30;99.70;;;;;;5036470;28;19916;-67
2023/06/20 10:29:40;;;;;;;;;;;29.40;99.90;;;;;;5036511;28;19905;-78
2023/06/20 10:32:06;;;;;;;;;;;29.50;99.90;;;;;;5036369;28;19936;-67
2023/06/20 10:34:36;;;;;;;;;;;29.60;99.90;;;;;;5035886;28;19909;-67
2023/06/20 10:37:09;;;;;;;;;;;29.70;99.90;;;;;;5046308;28;20226;-79
2023/06/20 10:39:34;;;;;;;;;;;29.80;99.90;;;;;;5041662;28;19943;-66
2023/06/20 10:42:05;;;;;;;;;;;29.90;99.90;;;;;;5039017;28;20008;-67
2023/06/20 10:44:31;;;;;;;;;;;30.10;99.90;;;;;;5037840;28;20349;-67
2023/06/20 10:46:56;;;;;;;;;;;30.20;99.90;;;;;;5039327;28;20003;-67
2023/06/20 10:49:22;;;;;;;;;;;30.20;99.90;;;;;;5017807;28;19909;-67
2023/06/20 10:51:53;;;;;;;;;;;30.30;99.90;;;;;;5036176;28;20203;-67
2023/06/20 10:54:20;;;;;;;;;;;30.40;99.90;;;;;;5035080;28;19916;-78
2023/06/20 10:56:49;;;;;;;;;;;30.50;99.90;;;;;;5018192;28;19909;-68
2023/06/20 10:59:16;;;;;;;;;;;30.30;99.10;;;;;;5035699;28;20000;-67
2023/06/20 11:01:41;;;;;;;;;;;30.10;99.60;;;;;;5035670;28;19912;-67
2023/06/20 11:04:14;;;;;;;;;;;29.90;99.90;;;;;;5036327;28;19911;-67
2023/06/20 11:06:41;;;;;;;;;;;30.00;99.90;;;;;;5034417;28;19992;-67
2023/06/20 11:09:17;;;;;;;;;;;30.20;99.90;;;;;;5035854;28;19915;-69
2023/06/20 11:11:42;;;;;;;;;;;30.20;99.20;;;;;;5040697;28;20314;-79
2023/06/20 11:14:28;;;;;;;;;;;30.20;99.90;;;;;;5033051;28;19905;-68
2023/06/20 11:16:54;;;;;;;;;;;30.00;99.90;;;;;;5034796;28;20308;-68
2023/06/20 11:19:26;;;;;;;;;;;29.80;99.90;;;;;;5032189;28;19916;-68
2023/06/20 11:21:51;;;;;;;;;;;29.60;99.40;;;;;;5034944;28;19955;-79
2023/06/20 11:24:19;;;;;;;;;;;29.40;99.90;;;;;;5035072;28;19908;-73
2023/06/20 11:26:44;;;;;;;;;;;29.50;99.90;;;;;;5035559;28;20216;-78
2023/06/20 11:29:10;;;;;;;;;;;29.70;99.90;;;;;;5035039;28;19909;-68
2023/06/20 11:31:35;;;;;;;;;;;29.80;99.90;;;;;;5032308;28;19913;-71
2023/06/20 11:34:04;;;;;;;;;;;29.60;99.50;;;;;;5034900;28;19909;-68
2023/06/20 11:36:31;;;;;;;;;;;29.30;99.60;;;;;;5035411;28;19999;-77
2023/06/20 11:39:05;;;;;;;;;;;28.90;99.90;;;;;;5017640;28;20246;-68
2023/06/20 11:41:31;;;;;;;;;;;28.80;99.90;;;;;;5035058;28;19909;-78
2023/06/20 11:43:57;;;;;;;;;;;28.70;99.90;;;;;;5031764;28;19913;-77
2023/06/20 11:46:22;;;;;;;;;;;28.80;99.90;;;;;;5034871;28;20009;-80
2023/06/20 11:48:56;;;;;;;;;;;28.80;99.90;;;;;;5035322;28;20312;-68
2023/06/20 11:51:24;;;;;;;;;;;28.80;99.90;;;;;;5034899;28;19905;-68
2023/06/20 11:53:59;;;;;;;;;;;28.80;99.90;;;;;;5035390;28;19904;-70
2023/06/20 11:56:25;;;;;;;;;;;28.80;99.90;;;;;;5032920;28;19921;-77
2023/06/20 11:58:52;;;;;;;;;;;28.80;99.90;;;;;;5052879;28;19923;-67
2023/06/20 12:01:21;;;;;;;;;;;28.60;99.90;;;;;;5048635;28;20003;-81
2023/06/20 12:04:06;;;;;;;;;;;28.50;99.90;;;;;;5037996;28;20192;-67
2023/06/20 12:06:33;;;;;;;;;;;28.60;99.90;;;;;;5033242;28;19991;-78
2023/06/20 12:09:11;;;;;;;;;;;28.90;99.90;;;;;;5040363;28;19904;-67
2023/06/20 12:11:49;;;;;;;;;;;29.20;99.90;;;;;;5035027;28;20310;-67
2023/06/20 12:14:15;;;;;;;;;;;29.40;99.90;;;;;;5036975;28;19916;-68
2023/06/20 12:16:42;;;;;;;;;;;29.40;99.90;;;;;;5037012;28;20374;-68
2023/06/20 12:19:08;;;;;;;;;;;29.30;99.90;;;;;;5039495;28;20215;-68
2023/06/20 12:21:34;;;;;;;;;;;29.40;99.90;;;;;;5037464;28;19912;-77
2023/06/20 12:24:00;;;;;;;;;;;29.40;99.90;;;;;;5036916;28;19912;-67
2023/06/20 12:26:25;;;;;;;;;;;29.60;99.90;;;;;;5038815;28;19948;-68
2023/06/20 12:28:52;;;;;;;;;;;29.90;99.90;;;;;;5041493;28;19905;-68
2023/06/20 12:31:17;;;;;;;;;;;30.00;99.60;;;;;;5042612;28;19905;-67
2023/06/20 12:33:44;;;;;;;;;;;30.00;99.80;;;;;;5040783;28;19912;-68
2023/06/20 12:36:10;;;;;;;;;;;29.90;99.20;;;;;;5042147;28;19913;-68
2023/06/20 12:38:36;;;;;;;;;;;29.70;99.50;;;;;;5039691;28;19916;-68
2023/06/20 12:41:03;;;;;;;;;;;29.50;99.80;;;;;;5037276;28;19959;-67
2023/06/20 12:43:29;;;;;;;;;;;29.40;99.70;;;;;;5035372;28;19941;-75
2023/06/20 12:45:57;;;;;;;;;;;29.50;99.20;;;;;;5030489;28;19956;-67
2023/06/20 12:48:23;;;;;;;;;;;29.50;99.30;;;;;;5038199;28;19915;-68
2023/06/20 12:50:49;;;;;;;;;;;29.60;99.90;;;;;;5037353;28;19995;-68
2023/06/20 12:53:14;;;;;;;;;;;29.70;99.90;;;;;;5038744;28;19917;-67
2023/06/20 12:55:40;;;;;;;;;;;30.00;99.90;;;;;;5040814;28;19921;-77
2023/06/20 12:58:07;;;;;;;;;;;30.10;99.90;;;;;;5005808;28;19913;-68
2023/06/20 13:00:33;;;;;;;;;;;30.20;99.90;;;;;;5037794;28;19921;-68
2023/06/20 13:02:59;;;;;;;;;;;30.30;99.90;;;;;;5037958;28;19954;-67
2023/06/20 13:05:25;;;;;;;;;;;30.40;99.90;;;;;;5038130;28;19917;-77
2023/06/20 13:07:51;;;;;;;;;;;30.50;99.90;;;;;;5037966;28;19992;-68
2023/06/20 13:10:19;;;;;;;;;;;30.50;99.90;;;;;;5031049;28;19996;-67
2023/06/20 13:12:45;;;;;;;;;;;30.50;99.90;;;;;;5016652;28;19963;-74
2023/06/20 13:15:12;;;;;;;;;;;30.60;99.90;;;;;;5037560;28;20251;-67
2023/06/20 13:17:38;;;;;;;;;;;30.50;99.90;;;;;;5037872;28;19912;-68
2023/06/20 13:20:06;;;;;;;;;;;30.50;99.90;;;;;;5037709;28;19909;-68
2023/06/20 13:22:34;;;;;;;;;;;30.40;99.90;;;;;;5035962;28;19916;-78
2023/06/20 13:25:00;;;;;;;;;;;30.30;99.60;;;;;;5037696;28;19909;-67
2023/06/20 13:27:26;;;;;;;;;;;30.30;99.50;;;;;;5037511;28;19911;-68
2023/06/20 13:29:55;;;;;;;;;;;30.30;99.90;;;;;;5037354;28;19909;-68
2023/06/20 13:32:20;;;;;;;;;;;30.20;99.90;;;;;;5037337;28;19932;-69
2023/06/20 13:34:46;;;;;;;;;;;30.20;99.90;;;;;;5036851;28;20319;-68
2023/06/20 13:37:11;;;;;;;;;;;30.40;99.90;;;;;;5027924;28;19913;-77
2023/06/20 13:39:37;;;;;;;;;;;30.50;99.50;;;;;;5034276;28;19939;-67
2023/06/20 13:42:03;;;;;;;;;;;30.40;99.60;;;;;;5037897;28;19904;-67
2023/06/20 13:44:30;;;;;;;;;;;30.30;99.90;;;;;;5036736;28;20239;-78
2023/06/20 13:46:55;;;;;;;;;;;30.20;99.60;;;;;;5037611;28;19913;-68
2023/06/20 13:49:21;;;;;;;;;;;30.20;99.50;;;;;;5019184;28;19934;-68
2023/06/20 13:51:46;;;;;;;;;;;30.20;99.90;;;;;;5037200;28;19909;-67
2023/06/20 13:54:12;;;;;;;;;;;30.10;98.50;;;;;;5037300;28;20219;-78
2023/06/20 13:56:38;;;;;;;;;;;30.10;99.80;;;;;;5050516;28;19920;-68
2023/06/20 13:59:04;;;;;;;;;;;30.00;99.80;;;;;;5037098;28;19921;-67
2023/06/20 14:01:30;;;;;;;;;;;30.00;99.70;;;;;;5027819;28;19913;-67
2023/06/20 14:03:56;;;;;;;;;;;29.90;99.50;;;;;;5036527;28;19909;-69
2023/06/20 14:06:21;;;;;;;;;;;29.80;99.90;;;;;;5036938;28;20212;-68
2023/06/20 14:08:47;;;;;;;;;;;29.70;99.50;;;;;;5035001;28;19959;-68
2023/06/20 14:11:13;;;;;;;;;;;29.60;99.90;;;;;;5038516;28;19975;-68
2023/06/20 14:13:38;;;;;;;;;;;29.50;99.90;;;;;;5038561;28;19908;-68
2023/06/20 14:16:05;;;;;;;;;;;29.60;99.90;;;;;;5036123;28;19971;-68